PWSweather.com
Personal Weather Stations
Station Observations
27552755
Bicesse, AlcabidechePT 2645-147

BicesseAlcabidechePT 2645-147

Lat: 38.7325817, Lon: -9.388308499999994

Elevation: 0

Station Type: NetAtmo

Latest ConditionsUpdated 12:31:00 PM GMT Monday, Jun 24, 2019
Currently Today's Max Today's Min Today's Average
Temperature 70.0°F21.1°C 70.0°F21.1°C 64.2°F17.9°C 65.9°F18.8°C
Dew Point 62.8°F17.1°C 62.8°F17.1°C 56.7°F13.7°C 59.0°F15.0°C
Winds - N N - - - - -
Wind Gusts -- -- - -
Humidity 82% 86% 79% 82%
Pressure 30.41 in1029.8 mb 30.42 in1030.1 mb 30.33 in1027.1 mb -
Precipitation - 0.12 in3.0 mm - -
Hour Temp Dew Point Humidity Winds Wind Gusts Pressure Precip Precip Rate Daily Precip Total
12:31 PM 70.0°F21.1°C 62.8°F17.1°C 82% - N N -- 30.41 in1029.8 mb 0.04 in1.0 mm 0.09 in2.3 mm 0.12 in3.0 mm
12:07 PM 68.9°F20.5°C 62.1°F16.7°C 83% - N N -- 30.42 in1030.1 mb 0.00 in0.0 mm 0.00 in0.0 mm 0.09 in2.3 mm
11:46 AM 68.5°F20.3°C 61.0°F16.1°C 81% - N N -- 30.42 in1030.1 mb 0.00 in0.0 mm 0.00 in0.0 mm 0.09 in2.3 mm
11:22 AM 69.3°F20.7°C 61.2°F16.2°C 80% - N N -- 30.42 in1030.1 mb 0.00 in0.0 mm 0.00 in0.0 mm 0.09 in2.3 mm
11:11 AM 69.3°F20.7°C 61.7°F16.5°C 81% - N N -- 30.42 in1030.1 mb 0.00 in0.0 mm 0.00 in0.0 mm 0.09 in2.3 mm
10:41 AM 68.4°F20.2°C 60.4°F15.8°C 80% - N N -- 30.41 in1029.8 mb 0.02 in0.5 mm 0.00 in0.0 mm 0.08 in2.0 mm
10:31 AM 68.4°F20.2°C 60.4°F15.8°C 80% - N N -- 30.40 in1029.5 mb 0.02 in0.5 mm 0.00 in0.0 mm 0.08 in2.0 mm
10:11 AM 67.6°F19.8°C 61.0°F16.1°C 83% - N N -- 30.40 in1029.5 mb 0.02 in0.5 mm 0.00 in0.0 mm 0.08 in2.0 mm
09:50 AM 66.7°F19.3°C 60.1°F15.6°C 83% - N N -- 30.40 in1029.5 mb 0.06 in1.5 mm 0.00 in0.0 mm 0.07 in1.8 mm
09:30 AM 66.4°F19.1°C 60.1°F15.6°C 84% - N N -- 30.40 in1029.5 mb 0.06 in1.5 mm 0.00 in0.0 mm 0.07 in1.8 mm
09:10 AM 66.6°F19.2°C 60.6°F15.9°C 85% - N N -- 30.40 in1029.5 mb 0.06 in1.5 mm 0.10 in2.5 mm 0.07 in1.8 mm
08:48 AM 66.2°F19.0°C 60.8°F16.0°C 86% - N N -- 30.40 in1029.5 mb 0.00 in0.0 mm 0.00 in0.0 mm 0.00 in0.0 mm
08:28 AM 65.8°F18.8°C 60.4°F15.8°C 86% - N N -- 30.40 in1029.5 mb 0.00 in0.0 mm 0.00 in0.0 mm 0.00 in0.0 mm
08:08 AM 65.1°F18.4°C 58.8°F14.9°C 84% - N N -- 30.39 in1029.1 mb 0.00 in0.0 mm 0.00 in0.0 mm 0.00 in0.0 mm
07:47 AM 64.8°F18.2°C 58.1°F14.5°C 83% - N N -- 30.39 in1029.1 mb 0.00 in0.0 mm 0.00 in0.0 mm 0.00 in0.0 mm
07:27 AM 64.9°F18.3°C 58.6°F14.8°C 84% - N N -- 30.38 in1028.8 mb 0.00 in0.0 mm 0.00 in0.0 mm 0.00 in0.0 mm
07:07 AM 64.9°F18.3°C 58.6°F14.8°C 84% - N N -- 30.38 in1028.8 mb 0.00 in0.0 mm 0.00 in0.0 mm 0.00 in0.0 mm
06:45 AM 64.9°F18.3°C 58.6°F14.8°C 84% - N N -- 30.37 in1028.4 mb 0.00 in0.0 mm 0.00 in0.0 mm 0.00 in0.0 mm
06:32 AM 64.9°F18.3°C 59.0°F15.0°C 85% - N N -- 30.38 in1028.8 mb 0.00 in0.0 mm 0.00 in0.0 mm 0.00 in0.0 mm
06:11 AM 64.8°F18.2°C 59.4°F15.2°C 86% - N N -- 30.38 in1028.8 mb 0.00 in0.0 mm 0.00 in0.0 mm 0.00 in0.0 mm
05:51 AM 64.6°F18.1°C 59.2°F15.1°C 86% - N N -- 30.36 in1028.1 mb 0.00 in0.0 mm 0.01 in0.3 mm 0.00 in0.0 mm
05:31 AM 64.4°F18.0°C 58.6°F14.8°C 85% - N N -- 30.35 in1027.8 mb 0.00 in0.0 mm 0.00 in0.0 mm 0.00 in0.0 mm
05:11 AM 64.8°F18.2°C 58.5°F14.7°C 84% - N N -- 30.34 in1027.4 mb 0.00 in0.0 mm 0.00 in0.0 mm 0.00 in0.0 mm
04:51 AM 64.6°F18.1°C 57.9°F14.4°C 83% - N N -- 30.34 in1027.4 mb 0.00 in0.0 mm 0.00 in0.0 mm 0.00 in0.0 mm
04:31 AM 64.4°F18.0°C 57.4°F14.1°C 82% - N N -- 30.33 in1027.1 mb 0.00 in0.0 mm 0.00 in0.0 mm 0.00 in0.0 mm
04:11 AM 64.4°F18.0°C 57.4°F14.1°C 82% - N N -- 30.34 in1027.4 mb 0.00 in0.0 mm 0.00 in0.0 mm 0.00 in0.0 mm
03:50 AM 64.2°F17.9°C 56.7°F13.7°C 81% - N N -- 30.34 in1027.4 mb 0.00 in0.0 mm 0.00 in0.0 mm 0.00 in0.0 mm
03:30 AM 64.8°F18.2°C 56.8°F13.8°C 80% - N N -- 30.35 in1027.8 mb 0.00 in0.0 mm 0.00 in0.0 mm 0.00 in0.0 mm
03:10 AM 64.6°F18.1°C 56.7°F13.7°C 80% - N N -- 30.35 in1027.8 mb 0.00 in0.0 mm 0.00 in0.0 mm 0.00 in0.0 mm
02:50 AM 64.8°F18.2°C 56.8°F13.8°C 80% - N N -- 30.35 in1027.8 mb 0.00 in0.0 mm 0.00 in0.0 mm 0.00 in0.0 mm
02:30 AM 64.8°F18.2°C 57.2°F14.0°C 81% - N N -- 30.36 in1028.1 mb 0.00 in0.0 mm 0.00 in0.0 mm 0.00 in0.0 mm
02:10 AM 64.9°F18.3°C 57.9°F14.4°C 82% - N N -- 30.37 in1028.4 mb 0.00 in0.0 mm 0.00 in0.0 mm 0.00 in0.0 mm
01:50 AM 65.1°F18.4°C 57.6°F14.2°C 81% - N N -- 30.37 in1028.4 mb 0.00 in0.0 mm 0.00 in0.0 mm 0.00 in0.0 mm
01:29 AM 65.3°F18.5°C 57.4°F14.1°C 80% - N N -- 30.36 in1028.1 mb 0.00 in0.0 mm 0.00 in0.0 mm 0.00 in0.0 mm
01:09 AM 65.5°F18.6°C 57.2°F14.0°C 79% - N N -- 30.36 in1028.1 mb 0.00 in0.0 mm 0.00 in0.0 mm 0.00 in0.0 mm
12:49 AM 65.7°F18.7°C 57.7°F14.3°C 80% - N N -- 30.36 in1028.1 mb 0.00 in0.0 mm 0.00 in0.0 mm 0.00 in0.0 mm
12:29 AM 65.8°F18.8°C 57.9°F14.4°C 80% - N N -- 30.36 in1028.1 mb 0.00 in0.0 mm 0.00 in0.0 mm 0.00 in0.0 mm
12:09 AM 66.0°F18.9°C 57.7°F14.3°C 79% - N N -- 30.36 in1028.1 mb 0.00 in0.0 mm 0.00 in0.0 mm 0.00 in0.0 mm